The Hangar Logo

METARs in Plain English
Latest METAR information for EGVN - BRIZE NORTON

EGVN 110350Z 28003KT CAVOK M01/M02 Q1004 BLU TEMPO 7000 BR WHT

In plain english is....

This is a METAR report for EGVN - BRIZE NORTON .
The report was made 25 minutes ago, at 03:50 UTC.
The wind was blowing at a speed of 3 knots (3.5 miles per hour, 1.5 metres per second) from the West (280°).
The visibility was greater than 6.2 miles (greater than 10 kilometres).
There were no clouds below 5,000 feet (1,524 metres).
The temperature was -1°C (30°F), a dew point of -2°C (28°F) and a relative humidity of 92.9%.
The altimeter setting (airfield QNH) was 1,004 hPa (29.65 inHg).
Other remarks BLU TEMPO 7000 BR WHT.

UK Mainland

Ireland

Channel Islands

France

Other



Enter
Tel: 07092 887559 - Fax: 07092 183262

Terms of Use | Privacy Statement
Content copyright © 1999-2012 TheHangar.co.uk. All rights reserved.
Please send your questions, comments, or bug reports to the Webmaster.